x

Buoy M01 - Jordan Basin (44037) Wave Buoy

4:04am - Thu 2nd Jul 2015 All times are EDT. -4 hours from GMT.

  • Sig Wave height 3.9ft
  • Peak Period 8s
  • Wind
    13mph, 16mph gusts
  • Air Temp 56°f
  • Sea Pressure 1007.3mb
  • Buoy M01 - Jordan Basin
  • Buoy M01 - Jordan Basin

More Historic Weather Station data

Upgrade to MSW Pro to gain access to the past 30 days of data for over 8000 Wavebouys and Weather Stations around the globe.

Join Pro

Comparision Forecast

View Surf forecast
   
Thu 07/02 4:04am 4ft 8s 13 16 mph 1007.3mb - 56f
3:04am 4.5ft 5s 13 16 mph 1007.3mb - 57f
2:04am 4ft 8s 13 16 mph 1007mb - 57f
1:04am 4.5ft 5s 18 20 mph 1006.7mb - 58f
12:04am 4.5ft 8s 16 20 mph 1006.6mb - 57f
Wed 07/01 11:04pm 4ft 8s 16 18 mph 1006.5mb - 57f
10:04pm 4.5ft 8s 13 16 mph 1006.9mb - 57f
8:04pm 4.5ft 6s 18
mph
1006.8mb - 57f
7:04pm 4.5ft 6s 16 20 mph 1006.9mb 55f 58f
6:04pm 4.5ft 8s 18 20 mph 1006.9mb - 57f
5:04pm 4.5ft 8s 16 20 mph 1007mb - 59f
4:04pm 4.5ft 8s 18 22 mph 1007.7mb - 59f
3:04pm 3.5ft 8s 22 27 mph 1008mb - 56f
2:04pm 3.5ft 8s 13 18 mph 1010.4mb - 57f
1:04pm 3ft 8s 9 11 mph 1011.3mb 56f 58f
12:04pm 3ft 8s 9
mph
1012mb 56f 59f
11:04am 3.5ft 8s 11 13 mph 1012.6mb 56f 59f
8:04am 3.5ft 8s  -  mph - 57f -
6:04am 3ft 8s 9
mph
1014.2mb - 58f
5:04am 3.5ft 8s 7
mph
1014.5mb - 56f
4:04am 3ft 8s 7
mph
1014.5mb - 56f
3:04am 3.5ft 8s 7 9 mph 1014.7mb - 56f
2:04am 3.5ft 8s 7 9 mph 1015.1mb - 56f
1:04am 3.5ft 8s 9
mph
1015.4mb - 56f
12:04am 3.5ft 8s 9 11 mph 1015.6mb - 56f
Tue 06/30 11:04pm 4.5ft 8s 11 13 mph 1015.7mb - 57f
10:04pm 3.5ft 8s 7 9 mph 1015.7mb - 57f
9:04pm  -   -  7 9 mph 1014.9mb - 57f
8:04pm 4ft 8s 7 9 mph 1014.7mb - 57f
6:04pm 3.5ft 8s 4 7 mph 1015.6mb - 64f
4:04pm  -   -  4 9 mph 1015.7mb - 67f
3:04pm 4.5ft 8s 4 7 mph 1015.9mb 58f 68f
2:04pm 4.5ft 8s 4 7 mph 1016mb - 63f
1:04pm 5ft 8s 7 9 mph 1015.8mb - 60f
12:04pm 5ft 8s 7 9 mph 1015.8mb - 60f
11:04am 4.5ft 8s 7 9 mph 1015.6mb - 62f
8:04am 5ft 8s 9 11 mph 1015mb - 61f
7:04am 5.5ft 8s 7 9 mph 1014.5mb - 59f
6:04am 6ft 8s 7 9 mph 1014.3mb - 56f
5:04am 5.5ft 8s 9 11 mph 1014.2mb - 56f
4:04am 6ft 11s 9
mph
1014mb - 56f
3:04am 5.5ft 11s 9 11 mph 1013.6mb - 56f
2:04am 6ft 11s 7 9 mph 1013.4mb - 56f
12:04am 5ft 11s 7
mph
1013mb - 55f
Mon 06/29 11:04pm 5.5ft 8s 7
mph
1012.6mb - 54f
9:04pm 6ft 8s 13 16 mph 1012mb 55f 55f
8:04pm 5ft 8s 9 11 mph 1011.6mb 55f 55f
6:04pm 6ft 8s 7
mph
1011.4mb - 56f
5:04pm  -   -  7 9 mph 1011.3mb - 57f
4:04pm 8.5ft 11s 9
mph
1011.1mb 55f 58f
3:04pm 7ft 8s 11 13 mph 1011.5mb 55f 58f
2:04pm  -   -  11 13 mph 1011mb - 58f
12:04pm 8ft 8s 11 13 mph 1010.4mb 54f 58f
10:04am 10ft 11s  -  mph - 54f -
4:04am 8ft 11s 22 29 mph 1004.5mb 53f 53f
1:04am 11ft 11s 7 9 mph 1002.4mb - 54f
12:04am  -   -  9 11 mph 1002.8mb - 53f
Sun 06/28 11:04pm 13ft 11s 13 16 mph 1003.3mb - 53f
10:04pm  -   -  13 16 mph 1003.9mb - 53f
9:04pm 13ft 8s 16 20 mph 1004.4mb - 53f
8:04pm 15.5ft 11s 20 27 mph 1004.6mb 53f 53f
7:04pm 12.5ft 11s  -  mph - 53f -
4:04pm 12ft 8s 31 43 mph 1007.7mb - 51f
3:04pm 14ft 8s 31 36 mph 1008.9mb - 51f
2:04pm 11ft 8s 36 43 mph 1009.4mb 55f 51f
1:04pm 9ft 6s 36 43 mph 1010.5mb 55f 52f
12:04pm 8.5ft 6s 34 43 mph 1012.4mb 55f 53f